Home > Products > Valid Products > TAF

000
FTUS44 KEWX 230500
TAFSAT
TAF
KSAT 230524Z 2306/2412 12005KT P6SM SKC
     FM231000 14005KT 4SM BR BKN012 BKN025
     FM231500 15007KT P6SM SCT015 BKN030
     FM231900 16013KT P6SM BKN040
     FM240600 17010KT P6SM BKN010=



000
FTUS44 KEWX 230500
TAFAUS
TAF
KAUS 230524Z 2306/2412 VRB03KT P6SM SKC
     FM231100 18006KT 5SM BR BKN015 BKN035
     FM231500 16010KT P6SM SCT015 BKN040
     FM232100 15014KT P6SM SCT060
     FM240600 17012KT P6SM BKN012=



000
FTUS44 KEWX 230500
TAFDRT
TAF
KDRT 230524Z 2306/2406 12010KT P6SM SKC
     FM231200 11007KT P6SM BKN012
     FM231700 14015KT P6SM SCT030 SCT120
     FM232100 15017KT P6SM BKN050 BKN120 PROB30 2322/2402 VRB25G35KT
      3SM TSRA BKN040CB=



000
FTUS44 KEWX 222300
TAFAUS
TAF
KAUS 222325Z 2300/2406 03008KT P6SM FEW060
     FM230300 VRB03KT P6SM SKC
     FM231100 18006KT 5SM BR BKN015 BKN035
     FM231500 16010KT P6SM SCT015 BKN040
     FM232100 15014KT P6SM SCT060
     FM240500 17012KT P6SM BKN012=



000
FTUS44 KEWX 222300
TAFDRT
TAF
KDRT 222325Z 2300/2324 14008KT P6SM SCT070
     FM230500 12010KT P6SM SKC
     FM231200 11007KT P6SM OVC015
     FM231700 14015KT P6SM SCT030 SCT120
     FM232100 15017KT P6SM BKN050 BKN120=



000
FTUS44 KEWX 222300
TAFSAT
TAF
KSAT 222325Z 2300/2406 08008KT P6SM FEW070
     FM230300 14005KT P6SM SKC
     FM231000 12005KT 4SM BR BKN012 BKN035
     FM231500 15007KT P6SM SCT015 BKN030
     FM231900 16012KT P6SM BKN040
     FM240500 17010KT P6SM BKN010=



000
FTUS44 KEWX 221700
TAFSAT
TAF
KSAT 221722Z 2218/2324 05012KT P6SM FEW035
     FM230400 14005KT P6SM SCT050
     FM231000 12005KT 4SM BR OVC012
     FM231600 15007KT P6SM SCT015 BKN050=



000
FTUS44 KEWX 221700
TAFDRT
TAF
KDRT 221722Z 2218/2318 08008KT P6SM FEW045
     FM222100 11010KT P6SM SKC
     FM231100 11007KT P6SM OVC015
     FM231700 14010G20KT P6SM SCT015 OVC060=



000
FTUS44 KEWX 221700
TAFAUS
TAF
KAUS 221722Z 2218/2324 03013KT P6SM FEW035
     FM230400 VRB03KT P6SM FEW035
     FM231100 14006KT 5SM BR BKN015 BKN060
     FM231500 16008KT P6SM SCT015 BKN060=



000
FTUS44 KEWX 221100
TAFSAT
TAF
KSAT 221123Z 2212/2318 VRB03KT P6SM SCT200
     FM221300 34005KT P6SM SKC
     FM230200 13008KT P6SM SKC
     FM231000 12005KT P6SM BKN015=



000
FTUS44 KEWX 221100
TAFAUS
TAF
KAUS 221123Z 2212/2318 VRB03KT P6SM SCT035
     FM221500 03010KT P6SM FEW035
     FM222100 05007KT P6SM SKC
     FM231100 14006KT P6SM SCT015=



000
FTUS44 KEWX 221100
TAFDRT
TAF
KDRT 221123Z 2212/2312 10006KT P6SM SKC
     FM221600 08008KT P6SM FEW045
     FM222000 11010KT P6SM SKC=



000
FTUS44 KEWX 220900 AAA
TAFSAT
TAF AMD
KSAT 220902Z 2209/2312 VRB03KT P6SM SCT200
     FM221300 34005KT P6SM SCT015
     FM221800 06008KT P6SM SKC=



000
FTUS44 KEWX 220900 AAA
TAFAUS
TAF AMD
KAUS 220901Z 2209/2312 VRB03KT P6SM SCT035
     FM221300 01007KT 4SM BR BKN025
     FM221500 03010KT P6SM FEW035
     FM222100 06007KT P6SM SKC=



000
FTUS44 KEWX 220500
TAFDRT
TAF
KDRT 220520Z 2206/2306 10006KT P6SM SKC
      TEMPO 2212/2214 BKN025
     FM221600 08008KT P6SM FEW025
     FM222000 11010KT P6SM SKC=



000
FTUS44 KEWX 220500
TAFSAT
TAF
KSAT 220520Z 2206/2312 27003KT P6SM FEW070 BKN250
     FM220900 VRB03KT 4SM BR BKN012
     FM221300 34005KT P6SM SCT015
     FM221800 06008KT P6SM SKC=



000
FTUS44 KEWX 220500
TAFAUS
TAF
KAUS 220520Z 2206/2312 23008KT P6SM BKN200
     FM220900 VRB03KT 4SM BR BKN012
     FM221300 01007KT P6SM BKN025
     FM221500 03010KT P6SM FEW035
     FM222100 06007KT P6SM SKC=



000
FTUS44 KEWX 220000 AAA
TAFSAT
TAF AMD
KSAT 220059Z 2201/2306 17009KT P6SM VCTS SCT040CB
      TEMPO 2201/2203 VRB15G35KT 4SM TSRA BKN035CB
     FM220300 17007KT P6SM SCT040
     FM220700 VRB03KT P6SM BKN012
     FM221300 34005KT P6SM BKN025
     FM221500 05008KT P6SM SCT025=



000
FTUS44 KEWX 212300
TAFSAT
TAF
KSAT 212322Z 2200/2306 17009KT P6SM BKN040 BKN250
     FM220700 VRB03KT P6SM BKN012
     FM221300 34005KT P6SM BKN025
     FM221500 05008KT P6SM SCT025=



000
FTUS44 KEWX 212300
TAFDRT
TAF
KDRT 212322Z 2200/2224 11007KT P6SM OVC250
     FM221300 10008KT P6SM BKN025
     FM221600 13008KT P6SM SCT025=



000
FTUS44 KEWX 212300
TAFAUS
TAF
KAUS 212322Z 2200/2306 17008KT P6SM SCT045
     FM220800 VRB03KT P6SM BKN012
     FM221300 01010KT P6SM BKN025
     FM221500 03010KT P6SM FEW035=



000
FTUS44 KEWX 211900 AAA
TAFAUS
TAF AMD
KAUS 211912Z 2119/2224 19010KT P6SM BKN040
     FM220100 19007KT P6SM SCT050
     FM220800 VRB03KT P6SM BKN012
     FM221300 01010KT P6SM BKN025
     FM221500 03010KT P6SM FEW035=



000
FTUS44 KEWX 211800 AAA
TAFSAT
TAF AMD
KSAT 211835Z 2119/2224 19012KT P6SM OVC040
     FM220100 17012KT P6SM SCT040
     FM220600 VRB03KT P6SM BKN012
     FM221500 05008KT P6SM SCT035=



000
FTUS44 KEWX 211700
TAFDRT
TAF
KDRT 211723Z 2118/2218 14005KT P6SM FEW016 OVC035
     FM212000 14008KT P6SM SCT040
     FM220100 11006KT P6SM SCT050
     FM221200 10008KT P6SM BKN025
     FM221600 13008KT P6SM SCT025=



000
FTUS44 KEWX 211700
TAFSAT
TAF
KSAT 211723Z 2118/2224 21009KT P6SM OVC022
     FM212000 17012KT P6SM BKN035
     FM220600 VRB03KT P6SM BKN012
     FM221500 05008KT P6SM SCT035=



000
FTUS44 KEWX 211700
TAFAUS
TAF
KAUS 211723Z 2118/2224 19011KT P6SM OVC025
     FM212000 18012KT P6SM BKN035
     FM220100 19007KT P6SM SCT050
     FM220800 VRB03KT P6SM BKN012
     FM221300 01010KT P6SM BKN025
     FM221500 03010KT P6SM FEW035=



000
FTUS44 KEWX 211500 AAD
TAFDRT
TAF AMD
KDRT 211507Z 2115/2212 14006KT P6SM OVC010
     FM211800 13012KT P6SM SCT060
     FM220100 11010KT P6SM FEW150
     FM221000 10008KT P6SM BKN025=



000
FTUS44 KEWX 211500 AAA
TAFSAT
TAF AMD
KSAT 211504Z 2115/2218 19010KT P6SM OVC010
     FM211700 18012KT P6SM OVC025
     FM212000 17012KT P6SM SCT035
     FM220600 16010KT P6SM BKN015
     FM221300 34008KT P6SM OVC015=



000
FTUS44 KEWX 211400 AAC
TAFAUS
TAF AMD
KAUS 211440Z 2115/2218 19007KT P6SM OVC012
     FM211700 19010KT P6SM BKN025
     FM212000 17012KT P6SM SCT035
     FM220800 20008KT P6SM BKN015
     FM221200 01010KT P6SM BKN025=



000
FTUS44 KEWX 211400 AAB
TAFAUS
TAF AMD
KAUS 211417Z 2114/2218 19007KT P6SM OVC008
     FM211600 17007KT P6SM OVC012
     FM211800 16012KT P6SM BKN025
     FM212000 16012KT P6SM SCT035
     FM220800 20008KT P6SM BKN015
     FM221200 01010KT P6SM BKN025=



000
FTUS44 KEWX 211300 AAC
TAFDRT
TAF AMD
KDRT 211339Z 2114/2212 11006KT P6SM BKN008 OVC015
     FM211800 13012KT P6SM SCT060
     FM220100 11010KT P6SM FEW150
     FM221000 10008KT P6SM BKN025=



000
FTUS44 KEWX 211300 AAB
TAFDRT
TAF AMD
KDRT 211319Z 2113/2212 12007KT P6SM BKN015
     FM211800 13012KT P6SM SCT060
     FM220100 11010KT P6SM FEW150
     FM221000 10008KT P6SM BKN025=



000
FTUS44 KEWX 211200 AAA
TAFAUS
TAF AMD
KAUS 211257Z 2113/2218 17007KT P6SM OVC009
     FM211500 17007KT P6SM BKN015
     FM211700 16012KT P6SM OVC025
     FM211800 16012KT P6SM SCT030 BKN040
     FM220200 19010KT P6SM SCT050
     FM220800 20008KT P6SM BKN015
     FM221200 01010KT P6SM BKN025=



000
FTUS44 KEWX 211200 AAA
TAFDRT
TAF AMD
KDRT 211214Z 2112/2212 12005KT P6SM SCT015
     FM211800 13012KT P6SM BKN060
     FM220100 11010KT P6SM FEW150
     FM221000 10008KT P6SM BKN025=



000
FTUS44 KEWX 211100
TAFDRT
TAF
KDRT 211121Z 2112/2212 12005KT P6SM BKN025
     FM211500 13008KT P6SM OVC015
     FM211700 13012KT P6SM SCT025 BKN080
     FM220100 11010KT P6SM FEW150
     FM221000 10008KT P6SM BKN025=



000
FTUS44 KEWX 211100
TAFAUS
TAF
KAUS 211121Z 2112/2218 17007KT 4SM BR OVC015
     FM211700 16012KT P6SM OVC025
     FM211800 16012KT P6SM SCT030 BKN040
     FM220200 19010KT P6SM SCT050
     FM220800 20008KT P6SM BKN015
     FM221200 01010KT P6SM BKN025=



000
FTUS44 KEWX 211100
TAFSAT
TAF
KSAT 211121Z 2112/2218 16005KT P6SM OVC012
     FM211600 18008KT P6SM OVC025
     FM211800 17010KT P6SM SCT030 BKN040
     FM220600 16010KT P6SM BKN015
     FM221300 34008KT P6SM OVC015=



000
FTUS44 KEWX 211000 AAD
TAFAUS
TAF AMD
KAUS 211008Z 2110/2212 17007KT P6SM BKN015
     FM211100 17007KT 4SM BR OVC007
     FM211400 18010KT P6SM OVC015
     FM211700 16012KT P6SM OVC025
     FM211800 16012KT P6SM SCT030 BKN040
     FM220200 19010KT P6SM SCT050=



000
FTUS44 KEWX 211000 AAC
TAFDRT
TAF AMD
KDRT 211005Z 2110/2206 12005KT P6SM OVC025
     FM211500 13008KT P6SM OVC015
     FM211700 13012KT P6SM SCT025 BKN080
     FM220100 11010KT P6SM FEW150=



000
FTUS44 KEWX 210900 AAB
TAFSAT
TAF AMD
KSAT 210911Z 2109/2212 16006KT P6SM BKN015
     FM211100 16005KT 4SM BR OVC004
     FM211400 17007KT 4SM BR OVC008
     FM211600 18008KT P6SM OVC012
     FM211800 17010KT P6SM SCT030 BKN040=



000
FTUS44 KEWX 210900 AAC
TAFAUS
TAF AMD
KAUS 210910Z 2109/2212 17007KT P6SM BKN045
     FM211100 17007KT 4SM BR OVC007
     FM211400 18010KT P6SM OVC015
     FM211700 16012KT P6SM OVC025
     FM211800 16012KT P6SM SCT030 BKN040
     FM220200 19010KT P6SM SCT050=



000
FTUS44 KEWX 210800 AAB
TAFAUS
TAF AMD
KAUS 210829Z 2108/2212 17007KT P6SM BKN045
     FM211000 17007KT 4SM BR OVC007
     FM211400 18010KT P6SM OVC015
     FM211700 16012KT P6SM OVC025
     FM211800 16012KT P6SM SCT030 BKN040
     FM220200 19010KT P6SM SCT050=



000
FTUS44 KEWX 210800 AAB
TAFDRT
TAF AMD
KDRT 210800Z 2108/2206 11005KT P6SM BKN025
     FM211000 12005KT P6SM OVC007
     FM211500 13008KT P6SM OVC015
     FM211700 13012KT P6SM SCT025 BKN080
     FM220100 11010KT P6SM FEW150=



000
FTUS44 KEWX 210700 AAA
TAFAUS
TAF AMD
KAUS 210704Z 2107/2212 17008KT P6SM BKN040
     FM210800 17007KT P6SM BKN025
     FM211000 17007KT 4SM BR OVC007
     FM211400 18010KT P6SM OVC015
     FM211700 16012KT P6SM OVC025
     FM211800 16012KT P6SM SCT030 BKN040
     FM220200 19010KT P6SM SCT050=



000
FTUS44 KEWX 210700 AAA
TAFDRT
TAF AMD
KDRT 210703Z 2107/2206 11005KT P6SM SCT028 BKN040
     FM211000 12005KT P6SM OVC007
     FM211500 13008KT P6SM OVC015
     FM211700 13012KT P6SM SCT025 BKN080
     FM220100 11010KT P6SM FEW150=



000
FTUS44 KEWX 210600 AAA
TAFSAT
TAF AMD
KSAT 210611Z 2106/2212 16010KT P6SM BKN018
     FM210900 16006KT 4SM BR OVC008
     FM211100 16005KT 4SM BR OVC004
     FM211400 17007KT 4SM BR OVC008
     FM211600 18008KT P6SM OVC012
     FM211800 17010KT P6SM SCT030 BKN040=



000
FTUS44 KEWX 210500
TAFAUS
TAF
KAUS 210520Z 2106/2212 18007KT P6SM FEW045 SCT070
     FM210700 17008KT P6SM BKN028
     FM210800 17007KT P6SM BKN015
     FM211000 17007KT 4SM BR OVC007
     FM211400 18010KT P6SM OVC015
     FM211700 16012KT P6SM OVC025
     FM211800 16012KT P6SM SCT030 BKN040
     FM220200 19010KT P6SM SCT050=



000
FTUS44 KEWX 210500
TAFSAT
TAF
KSAT 210520Z 2106/2212 16010KT P6SM BKN028
     FM210700 16008KT P6SM BKN018
     FM210900 16006KT 4SM BR OVC008
     FM211100 16005KT 4SM BR OVC004
     FM211400 17007KT 4SM BR OVC008
     FM211600 18008KT P6SM OVC012
     FM211800 17010KT P6SM SCT030 BKN040=



000
FTUS44 KEWX 210500
TAFDRT
TAF
KDRT 210520Z 2106/2206 09007KT P6SM SCT040
     FM210700 11005KT P6SM BKN028
     FM210900 12005KT P6SM OVC007
     FM211500 13008KT P6SM OVC015
     FM211700 13012KT P6SM SCT025 BKN080
     FM220100 11010KT P6SM FEW150=



000
FTUS44 KEWX 210400 AAB
TAFSAT
TAF AMD
KSAT 210401Z 2104/2206 16010KT P6SM BKN028
     FM210500 15007KT P6SM BKN015
     FM210800 16006KT 4SM BR OVC008
     FM211100 16005KT 4SM BR OVC004
     FM211400 17007KT 4SM BR OVC008
     FM211600 18008KT P6SM OVC012
     FM211800 17010KT P6SM SCT030 BKN040=



000
FTUS44 KEWX 210300 AAA
TAFSAT
TAF AMD
KSAT 210347Z 2104/2206 14009KT P6SM OVC035
     FM210500 15007KT P6SM BKN028
     FM210800 16006KT 4SM BR OVC008
     FM211100 16005KT 4SM BR OVC004
     FM211400 17007KT 4SM BR OVC008
     FM211600 18008KT P6SM OVC012
     FM211800 17010KT P6SM SCT030 BKN040=



000
FTUS44 KEWX 202300
TAFDRT
TAF
KDRT 202326Z 2100/2124 12009KT P6SM FEW021 BKN040
     FM210400 11007KT P6SM BKN018
     FM210900 12005KT 3SM BR OVC007
     FM211500 13008KT P6SM OVC015
     FM211700 13012KT P6SM SCT025 BKN040=



000
FTUS44 KEWX 202300
TAFAUS
TAF
KAUS 202326Z 2100/2206 14008KT P6SM BKN040
     FM210400 15007KT P6SM BKN028
     FM210700 16010KT P6SM BKN015
     FM210900 17007KT 4SM BR OVC007
     FM211500 18010KT P6SM OVC015
     FM211800 19012KT P6SM SCT030 BKN040
     FM220000 16010KT P6SM SCT050=



000
FTUS44 KEWX 202300
TAFSAT
TAF
KSAT 202326Z 2100/2206 14010KT P6SM BKN028
      TEMPO 2100/2102 BKN030
     FM210400 15007KT P6SM BKN018
     FM210800 16006KT 4SM BR OVC008
     FM211100 16005KT 4SM BR OVC004
     FM211400 17007KT 4SM BR OVC008
     FM211600 18008KT P6SM OVC012
     FM211800 17010KT P6SM SCT030 BKN040=



000
FTUS44 KEWX 202000 AAA
TAFAUS
TAF AMD
KAUS 202012Z 2020/2124 18014KT P6SM BKN035 OVC100
     FM210400 17010KT P6SM BKN015
     FM210800 17007KT 4SM BR OVC007
     FM211500 20012KT P6SM OVC015
     FM211800 19012KT P6SM SCT030 BKN040=



000
FTUS44 KEWX 201700
TAFDRT
TAF
KDRT 201737Z 2018/2118 12010KT P6SM OVC012
     FM202100 13012KT P6SM SCT020 BKN035
     FM210400 11007KT P6SM BKN015
     FM210900 12005KT 3SM BR OVC005
     FM211500 14008KT P6SM OVC015
     FM211700 15012KT P6SM SCT025 BKN040=



000
FTUS44 KEWX 201700
TAFAUS
TAF
KAUS 201737Z 2018/2124 17014KT P6SM BKN025 OVC090
     FM202100 16012KT P6SM SCT030 BKN040 BKN120
     FM210400 17010KT P6SM BKN015
     FM210800 17007KT 4SM BR OVC007
     FM211500 20012KT P6SM OVC015
     FM211800 19012KT P6SM SCT030 BKN040=



000
FTUS44 KEWX 201700
TAFSAT
TAF
KSAT 201737Z 2018/2124 15011KT P6SM OVC015
     FM202000 16012KT P6SM BKN025
     FM202200 15014KT P6SM SCT030 BKN040
     FM210400 15007KT P6SM BKN015
     FM210900 16006KT 4SM BR OVC005
     FM211500 18008KT P6SM OVC012
     FM211800 17012KT P6SM SCT030 BKN040=



000
FTUS44 KEWX 201700 AAC
TAFSAT
TAF AMD
KSAT 201702Z 2017/2118 14010KT P6SM OVC012
     FM201800 16012KT P6SM BKN025
     FM202200 15014KT P6SM SCT030 BKN050
     FM210400 15007KT P6SM BKN015
     FM210900 16007KT 5SM BR OVC005
     FM211500 18008KT P6SM OVC012=



000
FTUS44 KEWX 201700 AAE
TAFDRT
TAF AMD
KDRT 201701Z 2017/2112 12009KT P6SM OVC008
      TEMPO 2017/2018 OVC010
     FM201800 14015KT P6SM BKN015
     FM202000 13015KT P6SM BKN035
     FM210200 12009KT P6SM BKN050
     FM211000 11008KT P6SM BKN007=



000
FTUS44 KEWX 201500 AAD
TAFDRT
TAF AMD
KDRT 201529Z 2015/2112 11007KT 5SM -RA BR OVC006
      TEMPO 2016/2017 BR OVC010
     FM201700 13011KT P6SM BKN015
     FM201800 14015KT P6SM BKN025
     FM202100 13015KT P6SM BKN040
     FM210200 12009KT P6SM BKN050
     FM211000 11008KT P6SM BKN007=



000
FTUS44 KEWX 201500 AAB
TAFSAT
TAF AMD
KSAT 201527Z 2015/2118 13008KT P6SM OVC009
      TEMPO 2016/2017 BKN015 OVC120
     FM201800 16012KT P6SM BKN025
     FM202200 15014KT P6SM SCT030 BKN050
     FM210400 15007KT P6SM BKN015
     FM210900 16007KT 5SM BR OVC005
     FM211500 18008KT P6SM OVC012=



000
FTUS44 KEWX 201500 AAC
TAFAUS
TAF AMD
KAUS 201525Z 2015/2118 16010KT P6SM BKN015 OVC120
     FM201700 15010KT P6SM BKN025
     FM202100 16012KT P6SM SCT030 BKN050
     FM210400 17010KT P6SM BKN015
     FM210800 17007KT 4SM BR OVC007
     FM211500 20012KT P6SM OVC015=



000
FTUS44 KEWX 201400 AAC
TAFDRT
TAF AMD
KDRT 201435Z 2015/2112 11007KT 3SM -RA BR OVC004
      TEMPO 2015/2017 6SM -RA BR OVC010
     FM201700 13011KT P6SM BKN018
     FM201800 14015KT P6SM BKN025
     FM202100 13015KT P6SM BKN040
     FM210200 12009KT P6SM BKN050
     FM211000 11008KT P6SM BKN007=



000
FTUS44 KEWX 201300 AAB
TAFDRT
TAF AMD
KDRT 201328Z 2013/2112 11007KT 6SM BR OVC010
      TEMPO 2013/2015 4SM -RA BR OVC007
     FM201500 13011KT P6SM BKN018
     FM201800 14015KT P6SM BKN025
     FM202100 13015KT P6SM BKN040
     FM210200 12009KT P6SM BKN050
     FM211000 11008KT P6SM BKN007=



000
FTUS44 KEWX 201300 AAA
TAFSAT
TAF AMD
KSAT 201327Z 2013/2118 13007KT P6SM OVC008
      TEMPO 2013/2015 3SM -RA BR
     FM201500 14008KT P6SM OVC015
     FM201800 16012KT P6SM BKN025
     FM202200 15014KT P6SM SCT030 BKN050
     FM210400 15007KT P6SM BKN015
     FM210900 16007KT 5SM BR OVC005
     FM211500 18008KT P6SM OVC012=



000
FTUS44 KEWX 201300 AAB
TAFAUS
TAF AMD
KAUS 201326Z 2013/2118 13005KT 3SM BR OVC005
      TEMPO 2013/2015 1SM BR
     FM201500 16010KT 5SM BR OVC015
     FM201700 15010KT P6SM BKN025
     FM202100 16012KT P6SM SCT030 BKN050
     FM210400 17010KT P6SM BKN015
     FM210800 17007KT 4SM BR OVC007
     FM211500 20012KT P6SM OVC015=



000
FTUS44 KEWX 201200 AAA
TAFAUS
TAF AMD
KAUS 201234Z 2013/2118 10005KT 3SM BR OVC005
      TEMPO 2013/2015 2SM BR OVC003
     FM201500 16010KT 5SM BR OVC015
     FM201700 15010KT P6SM BKN025
     FM202100 16012KT P6SM SCT030 BKN050
     FM210400 17010KT P6SM BKN015
     FM210800 17007KT 4SM BR OVC007
     FM211500 20012KT P6SM OVC015=



000
FTUS44 KEWX 201200 AAA
TAFDRT
TAF AMD
KDRT 201229Z 2012/2112 11007KT 5SM -RA BR OVC015
      TEMPO 2013/2015 4SM -RA BR OVC012
     FM201500 13011KT P6SM BKN018
     FM201800 14015KT P6SM BKN025
     FM202100 13015KT P6SM BKN040
     FM210200 12009KT P6SM BKN050
     FM211000 11008KT P6SM BKN007=



000
FTUS44 KEWX 201100
TAFAUS
TAF
KAUS 201125Z 2012/2118 13005KT 2SM BR OVC004
      TEMPO 2012/2014 1/2SM FG OVC002
     FM201500 16010KT 5SM BR OVC015
     FM201700 15010KT P6SM BKN025
     FM202100 16012KT P6SM SCT030 BKN050
     FM210400 17010KT P6SM BKN015
     FM210800 17007KT 4SM BR OVC007
     FM211500 20012KT P6SM OVC015=



000
FTUS44 KEWX 201100
TAFSAT
TAF
KSAT 201125Z 2012/2118 13007KT P6SM OVC008
     FM201500 14008KT P6SM OVC015
     FM201800 16012KT P6SM BKN025
     FM202200 15014KT P6SM SCT030 BKN050
     FM210400 15007KT P6SM BKN015
     FM210900 16007KT 5SM BR OVC005
     FM211500 18008KT P6SM OVC012=



000
FTUS44 KEWX 201100
TAFDRT
TAF
KDRT 201125Z 2012/2112 11007KT P6SM OVC015
      TEMPO 2012/2015 4SM -RA BR OVC012
     FM201500 13011KT P6SM BKN012
     FM201800 14015KT P6SM BKN025
     FM202100 13015KT P6SM BKN040
     FM210200 12009KT P6SM BKN050
     FM211000 11008KT P6SM BKN007=



000
FTUS44 KEWX 201000 AAC
TAFAUS
TAF AMD
KAUS 201031Z 2011/2112 12004KT 2SM BR OVC003
      TEMPO 2011/2014 1/2SM FG OVC002
     FM201500 16010KT 5SM BR OVC015
     FM201700 15010KT P6SM BKN025
     FM202100 16012KT P6SM SCT030 BKN050
     FM210400 17010KT P6SM BKN015=



000
FTUS44 KEWX 201000 AAB
TAFAUS
TAF AMD
KAUS 201001Z 2010/2112 13005KT P6SM OVC004
     FM201200 14005KT 4SM BR OVC004
     FM201500 16010KT 5SM BR OVC015
     FM201700 15010KT P6SM BKN025
     FM202100 16012KT P6SM SCT030 BKN050
     FM210400 17010KT P6SM BKN015=



000
FTUS44 KEWX 200900 AAB
TAFDRT
TAF AMD
KDRT 200908Z 2009/2106 11010KT P6SM OVC020
     FM201200 12010KT P6SM BKN008
     FM201600 13013KT P6SM BKN015
     FM201900 13014KT P6SM BKN025
     FM202100 13015KT P6SM SCT025=



000
FTUS44 KEWX 200900 AAB
TAFSAT
TAF AMD
KSAT 200903Z 2009/2112 12004KT P6SM OVC012
     FM201100 15005KT P6SM OVC008
     FM201500 14008KT P6SM OVC015
     FM201800 16012KT P6SM BKN025
     FM202200 15014KT P6SM SCT030 BKN050
     FM210400 15007KT P6SM BKN015=



000
FTUS44 KEWX 200900 AAB
TAFAUS
TAF AMD
KAUS 200900Z 2009/2112 00000KT P6SM OVC007
     FM201100 00000KT 4SM BR OVC005
     FM201500 16010KT 5SM BR OVC015
     FM201700 15010KT P6SM BKN025
     FM202100 16012KT P6SM SCT030 BKN050
     FM210400 17010KT P6SM BKN015=



000
FTUS44 KEWX 200800 AAA
TAFAUS
TAF AMD
KAUS 200810Z 2008/2112 00000KT P6SM FEW150 BKN250
     FM200900 16004KT 5SM BR BKN070
     FM201100 15005KT 4SM BR OVC008
     FM201500 16010KT 5SM BR OVC015
     FM201700 15010KT P6SM BKN025
     FM202100 16012KT P6SM SCT030 BKN050
     FM210400 17010KT P6SM BKN015=



    US Dept of Commerce
    National Oceanic and Atmospheric Administration
    National Weather Service
    1325 East West Highway
    Silver Spring, MD 20910
    Page Author: NWS Internet Services Team
Disclaimer
Information Quality
Credits
Glossary
Privacy Policy
Freedom of Information Act (FOIA)
About Us
Career Opportunities